< < Back
Terminal Aerodrome Forecast


Current Version              Previous Versions:   1  2  3  4  5  6  7  8  9  

Terminal Aerodrome Forecast

419
FTUS42 KFFC 221742
TAFFTY
TAF
KFTY 221742Z 2218/2318 10008KT P6SM FEW250
     FM222100 09008KT P6SM BKN040
     FM230300 10006KT P6SM BKN025
     FM230800 08008KT 5SM -RA BR OVC008
     FM231400 09010G16KT 2SM SHRA BR OVC006 PROB30 2317/2318 2SM
      TSRA OVC015CB=



Latest METAR

486
SAUS70 KWBC 230300 RRB
MTRFTY
METAR KFTY 230253Z 09006KT 10SM OVC029 13/M03 A3024 RMK AO2 SLP239
T01281028 58007


USA.gov is the U.S. government's official web portal to all federal, state and local government web resources and services.